Time;durP1;ratioP1;P1;durP2;ratioP2;P2;SDS_P1;SDS_P2;PMS_P1;PMS_P2;Temp;Humidity;BMP_temperature;BMP_pressure;BME280_temperature;BME280_humidity;BME280_pressure;Samples;Min_cycle;Max_cycle;Signal;HPM_P1;HPM_P2
2022/09/10 00:00:53;;;;;;;58.17;31.60;;;;;;;;;;4977736;28;20605;-72
2022/09/10 00:03:20;;;;;;;67.18;32.88;;;;;;;;;;4957575;28;20726;-71
2022/09/10 00:05:46;;;;;;;58.40;30.08;;;;;;;;;;4978981;28;20061;-73
2022/09/10 00:08:13;;;;;;;59.15;30.33;;;;;;;;;;4979775;28;20038;-71
2022/09/10 00:10:39;;;;;;;64.68;30.67;;;;;;;;;;4977387;28;20049;-72
2022/09/10 00:13:06;;;;;;;71.70;30.77;;;;;;;;;;4959610;28;20031;-71
2022/09/10 00:15:32;;;;;;;52.45;28.85;;;;;;;;;;4957467;28;20493;-71
2022/09/10 00:17:58;;;;;;;58.53;29.80;;;;;;;;;;4960894;28;20090;-71
2022/09/10 00:20:25;;;;;;;58.65;28.35;;;;;;;;;;4980199;28;20082;-71
2022/09/10 00:22:52;;;;;;;59.30;29.27;;;;;;;;;;4983371;28;20030;-71
2022/09/10 00:25:18;;;;;;;54.25;27.42;;;;;;;;;;4984526;28;20116;-72
2022/09/10 00:27:44;;;;;;;61.88;27.48;;;;;;;;;;4970411;28;20713;-72
2022/09/10 00:30:11;;;;;;;52.55;27.95;;;;;;;;;;4973893;28;20037;-71
2022/09/10 00:32:38;;;;;;;53.33;26.27;;;;;;;;;;4987115;28;20050;-71
2022/09/10 00:35:04;;;;;;;60.58;27.48;;;;;;;;;;4989427;28;20049;-71
2022/09/10 00:37:30;;;;;;;55.47;28.42;;;;;;;;;;4987881;28;20061;-72
2022/09/10 00:39:56;;;;;;;58.08;26.88;;;;;;;;;;4988356;28;20059;-72
2022/09/10 00:42:22;;;;;;;56.72;26.65;;;;;;;;;;4988982;28;20035;-73
2022/09/10 00:44:59;;;;;;;56.70;27.80;;;;;;;;;;4966724;28;20318;-72
2022/09/10 00:47:28;;;;;;;62.35;28.67;;;;;;;;;;4989385;28;20330;-72
2022/09/10 00:49:57;;;;;;;63.40;30.38;;;;;;;;;;4989111;28;20041;-72
2022/09/10 00:52:23;;;;;;;61.13;30.73;;;;;;;;;;4978569;28;20058;-72
2022/09/10 00:54:49;;;;;;;71.25;31.85;;;;;;;;;;4984846;28;20121;-72
2022/09/10 00:57:19;;;;;;;68.13;33.65;;;;;;;;;;4978953;28;21529;-72
2022/09/10 00:59:47;;;;;;;68.40;34.03;;;;;;;;;;4996070;28;20089;-72
2022/09/10 01:02:14;;;;;;;72.53;35.75;;;;;;;;;;4980692;28;20540;-71
2022/09/10 01:04:40;;;;;;;72.30;34.67;;;;;;;;;;4978981;28;20042;-71
2022/09/10 01:07:08;;;;;;;68.15;37.00;;;;;;;;;;4982880;28;20026;-72
2022/09/10 01:09:35;;;;;;;62.03;36.45;;;;;;;;;;4981154;28;20312;-71
2022/09/10 01:12:13;;;;;;;67.35;36.45;;;;;;;;;;4978371;28;20137;-71
2022/09/10 01:14:58;;;;;;;65.70;35.15;;;;;;;;;;4978614;28;20105;-70
2022/09/10 01:17:29;;;;;;;63.28;35.40;;;;;;;;;;4982169;28;20046;-71
2022/09/10 01:19:55;;;;;;;;;;;;;;;;;;4986170;28;20022;-70
2022/09/10 01:22:27;;;;;;;64.07;34.47;;;;;;;;;;4979193;28;19920;-72
2022/09/10 01:24:55;;;;;;;60.45;33.88;;;;;;;;;;4982899;28;20045;-71
2022/09/10 01:27:22;;;;;;;60.03;31.88;;;;;;;;;;4980487;28;20118;-71
2022/09/10 01:30:02;;;;;;;66.05;34.08;;;;;;;;;;4982074;28;20045;-71
2022/09/10 01:32:32;;;;;;;62.65;31.67;;;;;;;;;;4979119;28;20023;-72
2022/09/10 01:35:16;;;;;;;55.67;29.02;;;;;;;;;;4981341;28;20033;-72
2022/09/10 01:37:45;;;;;;;54.30;28.33;;;;;;;;;;4979175;28;20037;-72
2022/09/10 01:40:11;;;;;;;53.17;27.25;;;;;;;;;;4981154;28;20030;-71
2022/09/10 01:42:39;;;;;;;53.40;27.08;;;;;;;;;;4983012;28;20034;-72
2022/09/10 01:45:05;;;;;;;50.75;26.63;;;;;;;;;;4981386;28;20053;-72
2022/09/10 01:47:49;;;;;;;53.38;26.83;;;;;;;;;;4981704;28;20131;-73
2022/09/10 01:50:15;;;;;;;55.45;27.55;;;;;;;;;;4982977;28;20026;-71
2022/09/10 01:52:50;;;;;;;56.08;28.75;;;;;;;;;;4979765;28;20472;-72
2022/09/10 01:55:29;;;;;;;59.00;29.13;;;;;;;;;;4980004;28;20150;-71
2022/09/10 01:58:12;;;;;;;51.60;28.25;;;;;;;;;;4981944;28;20507;-71
2022/09/10 02:00:40;;;;;;;53.35;29.85;;;;;;;;;;4973782;28;20039;-71
2022/09/10 02:03:10;;;;;;;63.92;30.35;;;;;;;;;;4981351;28;20710;-71
2022/09/10 02:05:38;;;;;;;60.40;31.27;;;;;;;;;;4979681;28;20034;-71
2022/09/10 02:08:10;;;;;;;60.30;32.00;;;;;;;;;;4980361;28;20176;-71
2022/09/10 02:10:47;;;;;;;64.05;31.25;;;;;;;;;;4980211;28;20058;-71
2022/09/10 02:13:13;;;;;;;61.03;31.45;;;;;;;;;;4977664;28;20508;-71
2022/09/10 02:15:39;;;;;;;67.45;33.97;;;;;;;;;;4962095;28;20516;-71
2022/09/10 02:18:06;;;;;;;75.43;34.22;;;;;;;;;;4980277;28;20616;-71
2022/09/10 02:20:32;;;;;;;73.68;35.33;;;;;;;;;;4959860;28;20037;-72
2022/09/10 02:22:59;;;;;;;78.20;36.83;;;;;;;;;;4956371;28;20355;-71
2022/09/10 02:25:30;;;;;;;73.35;37.45;;;;;;;;;;4982313;28;20037;-71
2022/09/10 02:27:56;;;;;;;80.32;37.95;;;;;;;;;;4958269;28;20030;-71
2022/09/10 02:30:23;;;;;;;82.22;38.35;;;;;;;;;;4977471;28;20034;-71
2022/09/10 02:32:49;;;;;;;87.30;42.80;;;;;;;;;;4977950;28;20026;-71
2022/09/10 02:35:15;;;;;;;84.28;42.03;;;;;;;;;;4980288;28;20033;-71
2022/09/10 02:37:42;;;;;;;90.88;42.00;;;;;;;;;;4980557;28;20053;-72
2022/09/10 02:40:09;;;;;;;91.45;42.92;;;;;;;;;;4977622;28;20113;-72
2022/09/10 02:42:37;;;;;;;90.18;45.95;;;;;;;;;;4977435;28;20033;-72
2022/09/10 02:45:03;;;;;;;85.65;43.65;;;;;;;;;;4978186;28;20041;-72
2022/09/10 02:47:29;;;;;;;90.40;45.53;;;;;;;;;;4977725;28;20129;-72
2022/09/10 02:49:55;;;;;;;90.32;46.33;;;;;;;;;;4965217;28;20133;-72
2022/09/10 02:52:21;;;;;;;84.90;47.92;;;;;;;;;;4969067;28;20129;-72
2022/09/10 02:54:49;;;;;;;87.90;46.63;;;;;;;;;;4981788;28;20029;-71
2022/09/10 02:57:15;;;;;;;86.78;46.40;;;;;;;;;;4977113;28;20034;-73
2022/09/10 02:59:41;;;;;;;82.55;45.65;;;;;;;;;;4982993;28;20030;-72
2022/09/10 03:02:07;;;;;;;80.55;45.60;;;;;;;;;;4974287;28;20523;-73
2022/09/10 03:04:33;;;;;;;77.40;44.92;;;;;;;;;;4979926;28;20030;-72
2022/09/10 03:06:59;;;;;;;80.47;45.47;;;;;;;;;;4979580;28;20034;-72
2022/09/10 03:09:27;;;;;;;79.85;45.58;;;;;;;;;;4979934;28;20045;-72
2022/09/10 03:11:53;;;;;;;86.43;46.05;;;;;;;;;;4977157;28;20399;-73
2022/09/10 03:14:22;;;;;;;79.07;45.95;;;;;;;;;;4979592;28;20148;-72
2022/09/10 03:16:48;;;;;;;88.28;46.95;;;;;;;;;;4978862;28;21459;-72
2022/09/10 03:19:14;;;;;;;78.20;46.00;;;;;;;;;;4981787;28;20034;-71
2022/09/10 03:21:40;;;;;;;79.00;45.58;;;;;;;;;;4986973;28;20117;-71
2022/09/10 03:24:07;;;;;;;85.63;47.10;;;;;;;;;;4981063;28;20117;-72
2022/09/10 03:26:33;;;;;;;82.07;46.22;;;;;;;;;;4977371;28;20085;-71
2022/09/10 03:28:59;;;;;;;92.13;47.78;;;;;;;;;;4980515;28;20163;-72
2022/09/10 03:31:28;;;;;;;88.55;46.10;;;;;;;;;;4980985;28;20034;-71
2022/09/10 03:33:54;;;;;;;76.25;43.65;;;;;;;;;;4977906;28;20026;-71
2022/09/10 03:36:21;;;;;;;77.95;45.45;;;;;;;;;;4977317;28;20392;-72
2022/09/10 03:38:47;;;;;;;83.15;46.28;;;;;;;;;;4976376;28;20112;-72
2022/09/10 03:41:13;;;;;;;81.22;45.55;;;;;;;;;;4977430;28;20023;-72
2022/09/10 03:43:39;;;;;;;82.93;46.40;;;;;;;;;;4977758;28;20046;-72
2022/09/10 03:46:05;;;;;;;77.25;44.30;;;;;;;;;;4980226;28;20034;-72
2022/09/10 03:48:31;;;;;;;76.85;45.92;;;;;;;;;;4973959;28;20030;-72
2022/09/10 03:50:58;;;;;;;81.80;44.35;;;;;;;;;;4978096;28;20480;-72
2022/09/10 03:53:24;;;;;;;76.15;44.05;;;;;;;;;;4983256;28;20163;-72
2022/09/10 03:55:51;;;;;;;76.72;44.30;;;;;;;;;;4979839;28;20150;-72
2022/09/10 03:58:17;;;;;;;70.35;41.25;;;;;;;;;;4984093;28;20023;-72
2022/09/10 04:00:44;;;;;;;77.85;43.28;;;;;;;;;;4983045;28;21295;-71
2022/09/10 04:03:11;;;;;;;70.45;42.90;;;;;;;;;;4981205;28;20507;-72
2022/09/10 04:05:42;;;;;;;60.72;38.63;;;;;;;;;;4982861;28;20026;-71
2022/09/10 04:08:08;;;;;;;61.70;39.05;;;;;;;;;;4983975;28;20107;-72
2022/09/10 04:10:35;;;;;;;65.30;39.95;;;;;;;;;;5000170;28;20022;-73
2022/09/10 04:13:01;;;;;;;64.45;39.78;;;;;;;;;;4983308;28;20042;-73
2022/09/10 04:15:27;;;;;;;70.53;39.75;;;;;;;;;;4980599;28;20149;-73
2022/09/10 04:17:53;;;;;;;65.85;39.65;;;;;;;;;;4985049;28;20125;-71
2022/09/10 04:20:20;;;;;;;64.57;40.30;;;;;;;;;;4983913;28;20055;-71
2022/09/10 04:22:47;;;;;;;66.43;40.00;;;;;;;;;;4984084;28;20034;-71
2022/09/10 04:25:14;;;;;;;66.07;41.00;;;;;;;;;;4985662;28;20046;-72
2022/09/10 04:27:42;;;;;;;65.20;40.78;;;;;;;;;;4984544;28;20030;-72
2022/09/10 04:30:08;;;;;;;68.25;41.45;;;;;;;;;;4982948;28;20100;-72
2022/09/10 04:32:34;;;;;;;65.15;41.28;;;;;;;;;;4982896;28;20054;-73
2022/09/10 04:35:03;;;;;;;70.78;42.15;;;;;;;;;;4985645;28;20488;-73
2022/09/10 04:37:30;;;;;;;69.10;41.70;;;;;;;;;;4984391;28;20035;-72
2022/09/10 04:39:56;;;;;;;72.80;42.60;;;;;;;;;;4980149;28;20038;-70
2022/09/10 04:42:22;;;;;;;68.93;40.33;;;;;;;;;;4987883;28;20022;-72
2022/09/10 04:44:48;;;;;;;59.92;37.65;;;;;;;;;;4984461;28;20030;-72
2022/09/10 04:47:14;;;;;;;67.28;39.70;;;;;;;;;;4968773;28;20038;-71
2022/09/10 04:49:41;;;;;;;67.05;39.00;;;;;;;;;;4984635;28;20050;-71
2022/09/10 04:52:08;;;;;;;64.22;39.25;;;;;;;;;;4987073;28;20069;-72
2022/09/10 04:54:35;;;;;;;64.35;40.45;;;;;;;;;;4984216;28;20025;-72
2022/09/10 04:57:01;;;;;;;60.22;37.67;;;;;;;;;;4971121;28;20069;-71
2022/09/10 04:59:28;;;;;;;64.85;37.83;;;;;;;;;;4973045;28;20053;-71
2022/09/10 05:01:54;;;;;;;60.28;37.13;;;;;;;;;;4981250;28;20590;-72
2022/09/10 05:04:20;;;;;;;58.13;35.85;;;;;;;;;;4987570;28;20034;-72
2022/09/10 05:06:49;;;;;;;70.90;39.20;;;;;;;;;;4991231;28;20069;-72
2022/09/10 05:09:15;;;;;;;66.18;37.00;;;;;;;;;;4972281;28;20022;-72
2022/09/10 05:11:41;;;;;;;59.50;34.13;;;;;;;;;;4989416;28;20422;-71
2022/09/10 05:14:07;;;;;;;45.55;30.65;;;;;;;;;;4988474;28;20015;-72
2022/09/10 05:16:35;;;;;;;52.08;29.83;;;;;;;;;;4985290;28;20499;-72
2022/09/10 05:19:01;;;;;;;50.47;29.52;;;;;;;;;;4984475;28;20104;-72
2022/09/10 05:21:28;;;;;;;51.53;28.80;;;;;;;;;;4988277;28;20030;-72
2022/09/10 05:23:55;;;;;;;57.92;28.15;;;;;;;;;;4984617;28;20503;-71
2022/09/10 05:26:21;;;;;;;47.92;27.92;;;;;;;;;;4983128;28;20030;-72
2022/09/10 05:28:47;;;;;;;56.35;28.80;;;;;;;;;;4967166;28;20031;-72
2022/09/10 05:31:13;;;;;;;48.38;28.98;;;;;;;;;;4985841;28;20046;-72
2022/09/10 05:33:39;;;;;;;53.45;30.20;;;;;;;;;;4966668;28;20022;-71
2022/09/10 05:36:09;;;;;;;52.90;28.73;;;;;;;;;;4982963;28;20038;-71
2022/09/10 05:38:35;;;;;;;56.47;29.80;;;;;;;;;;4982157;28;20552;-72
2022/09/10 05:41:01;;;;;;;57.38;30.80;;;;;;;;;;4985633;28;20073;-71
2022/09/10 05:43:28;;;;;;;56.42;32.22;;;;;;;;;;4968788;28;20034;-71
2022/09/10 05:45:54;;;;;;;64.85;32.05;;;;;;;;;;4984667;28;20129;-73
2022/09/10 05:48:20;;;;;;;59.75;32.00;;;;;;;;;;4984984;28;21026;-71
2022/09/10 05:50:46;;;;;;;57.25;31.77;;;;;;;;;;4987782;28;20065;-73
2022/09/10 05:53:13;;;;;;;61.15;33.53;;;;;;;;;;4973205;28;20071;-73
2022/09/10 05:55:39;;;;;;;56.08;32.58;;;;;;;;;;4985667;28;20480;-73
2022/09/10 05:58:05;;;;;;;54.35;33.15;;;;;;;;;;4984705;28;20027;-73
2022/09/10 06:00:32;;;;;;;67.68;34.17;;;;;;;;;;4981109;28;20026;-74
2022/09/10 06:02:58;;;;;;;61.72;34.67;;;;;;;;;;4976843;28;20038;-73
2022/09/10 06:05:24;;;;;;;59.85;33.10;;;;;;;;;;4984468;28;20041;-74
2022/09/10 06:07:50;;;;;;;52.60;33.35;;;;;;;;;;4985200;28;20030;-73
2022/09/10 06:10:17;;;;;;;54.30;33.33;;;;;;;;;;4982661;28;20585;-74
2022/09/10 06:12:46;;;;;;;54.42;34.28;;;;;;;;;;4984286;28;20114;-74
2022/09/10 06:15:13;;;;;;;54.83;34.20;;;;;;;;;;4984962;28;20105;-72
2022/09/10 06:17:39;;;;;;;54.60;33.83;;;;;;;;;;4984665;28;20030;-71
2022/09/10 06:20:06;;;;;;;55.60;33.95;;;;;;;;;;4974346;28;20037;-71
2022/09/10 06:22:32;;;;;;;56.33;34.50;;;;;;;;;;4984540;28;20022;-72
2022/09/10 06:24:58;;;;;;;47.22;33.00;;;;;;;;;;4985184;28;20038;-72
2022/09/10 06:27:25;;;;;;;50.63;33.13;;;;;;;;;;4985223;28;20034;-71
2022/09/10 06:29:51;;;;;;;44.35;31.85;;;;;;;;;;4974326;28;20232;-71
2022/09/10 06:32:17;;;;;;;50.50;32.63;;;;;;;;;;4982682;28;20101;-72
2022/09/10 06:34:43;;;;;;;47.78;32.08;;;;;;;;;;4985581;28;20028;-71
2022/09/10 06:37:09;;;;;;;49.38;33.15;;;;;;;;;;4987137;28;20077;-71
2022/09/10 06:39:35;;;;;;;47.97;32.33;;;;;;;;;;4987658;28;20113;-71
2022/09/10 06:42:01;;;;;;;48.08;33.72;;;;;;;;;;4997073;28;20046;-71
2022/09/10 06:44:28;;;;;;;50.97;34.00;;;;;;;;;;4986602;28;20042;-73
2022/09/10 06:46:54;;;;;;;51.58;34.95;;;;;;;;;;4990851;28;20035;-73
2022/09/10 06:49:20;;;;;;;53.72;36.97;;;;;;;;;;4982387;28;20053;-73
2022/09/10 06:51:48;;;;;;;57.83;35.30;;;;;;;;;;4985298;28;20034;-73
2022/09/10 06:54:14;;;;;;;54.88;35.45;;;;;;;;;;4991000;28;20026;-73
2022/09/10 06:56:41;;;;;;;49.97;33.85;;;;;;;;;;4989997;28;20041;-73
2022/09/10 06:59:07;;;;;;;47.15;30.08;;;;;;;;;;4989004;28;20085;-74
2022/09/10 07:01:34;;;;;;;35.70;27.85;;;;;;;;;;4954981;28;20042;-73
2022/09/10 07:04:01;;;;;;;38.97;27.02;;;;;;;;;;4989698;28;20038;-73
2022/09/10 07:06:33;;;;;;;34.88;22.60;;;;;;;;;;4994388;28;20030;-74
2022/09/10 07:08:59;;;;;;;25.25;19.83;;;;;;;;;;4981938;28;20089;-73
2022/09/10 07:11:27;;;;;;;26.52;16.35;;;;;;;;;;4979893;28;20022;-73
2022/09/10 07:13:53;;;;;;;20.63;14.38;;;;;;;;;;4980625;28;20049;-73
2022/09/10 07:16:24;;;;;;;18.10;13.93;;;;;;;;;;4979550;28;20027;-73
2022/09/10 07:18:50;;;;;;;;;;;;;;;;;;4963596;28;20034;-73
2022/09/10 07:21:16;;;;;;;30.23;17.38;;;;;;;;;;4979560;28;20155;-73
2022/09/10 07:23:43;;;;;;;28.60;17.27;;;;;;;;;;4988986;28;20033;-71
2022/09/10 07:26:13;;;;;;;25.40;18.55;;;;;;;;;;4987833;28;20034;-73
2022/09/10 07:28:41;;;;;;;25.38;18.10;;;;;;;;;;4969417;28;20555;-73
2022/09/10 07:31:18;;;;;;;24.38;17.77;;;;;;;;;;4983890;28;20022;-73
2022/09/10 07:33:46;;;;;;;24.55;18.63;;;;;;;;;;4986809;28;20026;-74
2022/09/10 07:36:12;;;;;;;28.98;18.67;;;;;;;;;;4986032;28;20045;-73
2022/09/10 07:38:39;;;;;;;24.00;17.90;;;;;;;;;;4988965;28;20035;-73
2022/09/10 07:41:07;;;;;;;25.15;17.08;;;;;;;;;;4989138;28;20030;-72
2022/09/10 07:43:33;;;;;;;25.48;17.75;;;;;;;;;;4990935;28;20022;-73
2022/09/10 07:45:59;;;;;;;25.73;17.58;;;;;;;;;;4989243;28;20087;-73
2022/09/10 07:48:27;;;;;;;29.25;18.05;;;;;;;;;;4988825;28;20031;-73
2022/09/10 07:50:53;;;;;;;28.05;18.33;;;;;;;;;;4988799;28;20029;-73
2022/09/10 07:53:20;;;;;;;21.38;16.45;;;;;;;;;;4986148;28;20105;-73
2022/09/10 07:55:46;;;;;;;24.23;17.55;;;;;;;;;;4985371;28;20030;-73
2022/09/10 07:58:12;;;;;;;20.65;15.70;;;;;;;;;;4987879;28;20037;-73
2022/09/10 08:00:38;;;;;;;21.80;15.55;;;;;;;;;;4981980;28;20031;-72
2022/09/10 08:03:04;;;;;;;22.15;13.73;;;;;;;;;;4970384;28;20042;-73
2022/09/10 08:05:31;;;;;;;20.20;13.48;;;;;;;;;;4989692;28;20038;-73
2022/09/10 08:07:58;;;;;;;21.98;14.27;;;;;;;;;;4987558;28;20042;-73
2022/09/10 08:10:24;;;;;;;21.90;13.68;;;;;;;;;;4971869;28;20039;-73
2022/09/10 08:12:50;;;;;;;19.60;12.88;;;;;;;;;;4988497;28;20487;-73
2022/09/10 08:15:16;;;;;;;20.05;12.95;;;;;;;;;;4968293;28;20026;-73
2022/09/10 08:17:42;;;;;;;18.48;12.25;;;;;;;;;;4979366;28;20081;-73
2022/09/10 08:20:08;;;;;;;21.17;12.80;;;;;;;;;;4986582;28;20499;-73
2022/09/10 08:22:34;;;;;;;23.38;12.73;;;;;;;;;;4981825;28;20025;-73
2022/09/10 08:25:01;;;;;;;22.95;12.52;;;;;;;;;;4982653;28;20031;-72
2022/09/10 08:27:27;;;;;;;26.55;13.95;;;;;;;;;;4988989;28;20041;-73
2022/09/10 08:29:53;;;;;;;17.38;12.07;;;;;;;;;;4968068;28;20022;-72
2022/09/10 08:32:20;;;;;;;18.38;11.57;;;;;;;;;;4985578;28;20073;-73
2022/09/10 08:34:46;;;;;;;21.27;11.85;;;;;;;;;;4987729;28;20456;-71
2022/09/10 08:37:11;;;;;;;24.88;12.10;;;;;;;;;;4987987;28;20034;-71
2022/09/10 08:39:37;;;;;;;19.35;12.63;;;;;;;;;;4993342;28;20054;-73
2022/09/10 08:42:25;;;;;;;18.80;11.60;;;;;;;;;;4992987;28;20046;-73
2022/09/10 08:45:05;;;;;;;24.55;11.85;;;;;;;;;;4978620;28;20030;-73
2022/09/10 08:47:41;;;;;;;24.30;11.43;;;;;;;;;;4990663;28;20105;-73
2022/09/10 08:50:14;;;;;;;15.10;8.60;;;;;;;;;;4975260;28;20445;-72
2022/09/10 08:52:40;;;;;;;9.68;6.35;;;;;;;;;;4992587;28;20054;-73
2022/09/10 08:55:10;;;;;;;9.27;5.30;;;;;;;;;;4993748;28;20026;-73
2022/09/10 08:57:36;;;;;;;13.00;5.10;;;;;;;;;;4992271;28;20024;-73
2022/09/10 09:00:03;;;;;;;14.35;6.13;;;;;;;;;;4993185;28;20057;-71
2022/09/10 09:02:47;;;;;;;15.95;7.25;;;;;;;;;;4991227;28;20100;-73
2022/09/10 09:05:16;;;;;;;15.70;8.18;;;;;;;;;;4966195;28;20104;-74
2022/09/10 09:07:42;;;;;;;11.18;8.20;;;;;;;;;;4990089;28;20034;-73
2022/09/10 09:10:23;;;;;;;12.77;8.82;;;;;;;;;;4991167;28;20038;-73
2022/09/10 09:13:12;;;;;;;13.93;7.95;;;;;;;;;;4988159;28;20034;-73
2022/09/10 09:15:46;;;;;;;16.15;8.55;;;;;;;;;;4993719;28;20097;-73
2022/09/10 09:18:17;;;;;;;15.98;8.73;;;;;;;;;;4988521;28;20117;-73
2022/09/10 09:20:43;;;;;;;15.93;8.85;;;;;;;;;;4989303;28;20045;-71
2022/09/10 09:23:15;;;;;;;11.40;8.02;;;;;;;;;;4987572;28;20117;-71
2022/09/10 09:25:48;;;;;;;15.02;7.95;;;;;;;;;;4993014;28;20034;-71
2022/09/10 09:28:18;;;;;;;10.95;8.60;;;;;;;;;;4989769;28;20025;-72
2022/09/10 09:30:48;;;;;;;14.43;9.43;;;;;;;;;;4990502;28;20030;-73
2022/09/10 09:33:16;;;;;;;116.72;17.13;;;;;;;;;;4990517;28;20077;-72
2022/09/10 09:35:47;;;;;;;14.57;7.93;;;;;;;;;;4991174;28;20030;-72
2022/09/10 09:38:32;;;;;;;10.88;7.95;;;;;;;;;;4990696;28;20022;-71
2022/09/10 09:41:06;;;;;;;23.02;8.00;;;;;;;;;;4991721;28;20022;-71
2022/09/10 09:43:36;;;;;;;11.98;6.75;;;;;;;;;;4989284;28;20038;-71
2022/09/10 09:46:02;;;;;;;18.13;7.50;;;;;;;;;;4970304;28;20062;-72
2022/09/10 09:48:33;;;;;;;12.93;7.20;;;;;;;;;;4965647;28;20101;-72
2022/09/10 09:50:59;;;;;;;13.27;7.75;;;;;;;;;;4990914;28;20057;-70
2022/09/10 09:53:26;;;;;;;12.77;8.60;;;;;;;;;;4986228;28;20100;-72
2022/09/10 09:55:54;;;;;;;15.95;10.57;;;;;;;;;;4986651;28;20037;-72
2022/09/10 09:58:20;;;;;;;15.68;10.10;;;;;;;;;;4979141;28;20031;-72
2022/09/10 10:01:07;;;;;;;11.20;8.68;;;;;;;;;;4983250;28;20040;-72
2022/09/10 10:03:35;;;;;;;12.40;8.38;;;;;;;;;;4988483;28;20097;-72
2022/09/10 10:06:02;;;;;;;10.90;9.00;;;;;;;;;;4991569;28;20038;-72
2022/09/10 10:08:46;;;;;;;15.43;9.40;;;;;;;;;;4971107;28;20403;-72
2022/09/10 10:11:13;;;;;;;13.10;11.15;;;;;;;;;;4988347;28;20105;-72
2022/09/10 10:13:41;;;;;;;14.13;11.25;;;;;;;;;;4968737;28;20069;-73
2022/09/10 10:16:15;;;;;;;15.82;11.52;;;;;;;;;;4984720;28;20484;-74
2022/09/10 10:18:41;;;;;;;18.90;11.70;;;;;;;;;;4988775;28;20093;-73
2022/09/10 10:21:12;;;;;;;16.52;11.35;;;;;;;;;;4985874;28;20110;-72
2022/09/10 10:23:38;;;;;;;13.13;11.20;;;;;;;;;;4978077;28;20073;-73
2022/09/10 10:26:20;;;;;;;12.75;10.32;;;;;;;;;;4984166;28;20030;-73
2022/09/10 10:28:46;;;;;;;12.52;8.82;;;;;;;;;;4964286;28;20556;-73
2022/09/10 10:31:13;;;;;;;10.90;9.23;;;;;;;;;;4960521;28;20045;-73
2022/09/10 10:33:45;;;;;;;9.77;8.10;;;;;;;;;;4985156;28;20037;-72
2022/09/10 10:36:24;;;;;;;11.23;9.30;;;;;;;;;;4986266;28;20460;-73
2022/09/10 10:39:12;;;;;;;11.27;8.00;;;;;;;;;;4983608;28;20117;-74
2022/09/10 10:41:44;;;;;;;27.77;10.13;;;;;;;;;;4981390;28;20519;-73
2022/09/10 10:44:11;;;;;;;53.78;11.73;;;;;;;;;;4963979;28;20031;-74
2022/09/10 10:47:10;;;;;;;12.35;7.82;;;;;;;;;;4986322;28;20033;-74
2022/09/10 10:49:39;;;;;;;8.40;6.00;;;;;;;;;;4985913;28;20033;-74
2022/09/10 10:52:34;;;;;;;5.50;4.95;;;;;;;;;;4981051;28;20483;-73
2022/09/10 10:55:23;;;;;;;170.35;18.95;;;;;;;;;;4964611;28;20057;-75
2022/09/10 10:57:59;;;;;;;27.10;6.68;;;;;;;;;;4965738;28;20057;-72
2022/09/10 11:00:26;;;;;;;8.93;5.65;;;;;;;;;;4985605;28;20436;-74
2022/09/10 11:02:58;;;;;;;5.80;4.97;;;;;;;;;;4964208;28;20041;-74
2022/09/10 11:05:31;;;;;;;5.85;5.25;;;;;;;;;;4975056;28;20035;-75
2022/09/10 11:08:04;;;;;;;5.82;5.22;;;;;;;;;;4975733;28;20188;-74
2022/09/10 11:10:36;;;;;;;8.68;5.10;;;;;;;;;;4983775;28;20054;-73
2022/09/10 11:13:05;;;;;;;7.47;4.75;;;;;;;;;;4981627;28;20141;-73
2022/09/10 11:15:34;;;;;;;31.60;7.80;;;;;;;;;;4977776;28;20472;-75
2022/09/10 11:18:15;;;;;;;49.25;8.73;;;;;;;;;;4978013;28;20130;-74
2022/09/10 11:20:42;;;;;;;5.45;4.88;;;;;;;;;;4974260;28;20061;-74
2022/09/10 11:23:12;;;;;;;11.50;5.03;;;;;;;;;;4959178;28;20097;-75
2022/09/10 11:25:40;;;;;;;7.78;3.72;;;;;;;;;;4977183;28;20487;-74
2022/09/10 11:28:11;;;;;;;6.80;3.97;;;;;;;;;;4978791;28;20130;-74
2022/09/10 11:30:38;;;;;;;5.15;3.78;;;;;;;;;;4956790;28;20031;-74
2022/09/10 11:33:06;;;;;;;6.88;3.22;;;;;;;;;;4974995;28;20522;-75
2022/09/10 11:35:42;;;;;;;4.68;3.35;;;;;;;;;;4961048;28;20049;-75
2022/09/10 11:38:17;;;;;;;4.55;3.15;;;;;;;;;;4976213;28;20092;-73
2022/09/10 11:40:47;;;;;;;4.28;3.13;;;;;;;;;;4976798;28;20045;-74
2022/09/10 11:43:13;;;;;;;4.40;3.15;;;;;;;;;;4973098;28;20042;-73
2022/09/10 11:45:46;;;;;;;5.55;3.33;;;;;;;;;;4943377;28;20749;-75
2022/09/10 11:48:16;;;;;;;5.40;3.30;;;;;;;;;;4978414;28;20039;-74
2022/09/10 11:50:52;;;;;;;4.80;3.42;;;;;;;;;;4973591;28;20037;-75
2022/09/10 11:53:20;;;;;;;6.38;3.97;;;;;;;;;;4974612;28;20051;-75
2022/09/10 11:55:49;;;;;;;5.22;3.85;;;;;;;;;;4975619;28;20054;-76
2022/09/10 11:58:28;;;;;;;6.30;4.38;;;;;;;;;;4973981;28;20030;-74
2022/09/10 12:01:01;;;;;;;7.15;4.20;;;;;;;;;;4976933;28;20496;-75
2022/09/10 12:03:30;;;;;;;13.73;5.88;;;;;;;;;;4974050;28;20096;-75
2022/09/10 12:05:59;;;;;;;7.15;4.85;;;;;;;;;;4960280;28;20202;-75
2022/09/10 12:08:27;;;;;;;7.10;4.95;;;;;;;;;;4979590;28;20085;-73
2022/09/10 12:11:08;;;;;;;18.02;4.97;;;;;;;;;;4976918;28;20042;-74
2022/09/10 12:13:38;;;;;;;4.53;2.95;;;;;;;;;;4981295;28;20411;-75
2022/09/10 12:16:28;;;;;;;5.07;3.57;;;;;;;;;;4981193;28;20031;-74
2022/09/10 12:18:55;;;;;;;18.33;4.00;;;;;;;;;;4980065;28;20116;-76
2022/09/10 12:21:31;;;;;;;7.40;5.10;;;;;;;;;;4980460;28;20027;-73
2022/09/10 12:23:58;;;;;;;17.92;5.38;;;;;;;;;;4983289;28;20038;-74
2022/09/10 12:26:24;;;;;;;8.45;4.70;;;;;;;;;;4980410;28;20034;-76
2022/09/10 12:28:53;;;;;;;8.32;5.35;;;;;;;;;;4981595;28;20113;-75
2022/09/10 12:31:20;;;;;;;6.90;4.78;;;;;;;;;;4984017;28;20022;-75
2022/09/10 12:33:46;;;;;;;7.03;4.55;;;;;;;;;;4985389;28;20134;-74
2022/09/10 12:36:35;;;;;;;9.52;5.07;;;;;;;;;;4985683;28;20133;-75
2022/09/10 12:39:20;;;;;;;7.00;4.40;;;;;;;;;;4962437;28;20432;-74
2022/09/10 12:41:46;;;;;;;8.63;5.72;;;;;;;;;;4980289;28;20446;-74
2022/09/10 12:44:27;;;;;;;12.48;4.50;;;;;;;;;;4984708;28;20146;-73
2022/09/10 12:47:26;;;;;;;18.50;7.60;;;;;;;;;;4986668;28;20034;-75
2022/09/10 12:49:56;;;;;;;7.47;4.63;;;;;;;;;;4945384;28;20038;-74
2022/09/10 12:52:34;;;;;;;6.63;3.10;;;;;;;;;;4982477;28;20047;-73
2022/09/10 12:55:03;;;;;;;7.55;4.00;;;;;;;;;;4982974;28;20793;-74
2022/09/10 12:57:49;;;;;;;12.05;3.85;;;;;;;;;;4985231;28;20037;-75
2022/09/10 13:00:20;;;;;;;7.40;2.80;;;;;;;;;;4981450;28;20034;-74
2022/09/10 13:03:05;;;;;;;9.23;3.75;;;;;;;;;;4988825;28;20487;-75
2022/09/10 13:05:38;;;;;;;4.47;3.00;;;;;;;;;;4981025;28;20039;-75
2022/09/10 13:08:06;;;;;;;6.32;2.97;;;;;;;;;;4985491;28;20519;-74
2022/09/10 13:10:33;;;;;;;8.45;3.03;;;;;;;;;;4983387;28;20027;-73
2022/09/10 13:13:03;;;;;;;6.07;2.97;;;;;;;;;;4981953;28;20034;-74
2022/09/10 13:15:34;;;;;;;3.92;2.30;;;;;;;;;;4980954;28;20492;-76
2022/09/10 13:18:00;;;;;;;;;;;;;;;;;;4985007;28;20053;-74
2022/09/10 13:20:26;;;;;;;5.75;2.70;;;;;;;;;;4967806;28;19918;-74
2022/09/10 13:22:54;;;;;;;7.30;3.28;;;;;;;;;;4983426;28;20112;-74
2022/09/10 13:25:35;;;;;;;6.22;2.85;;;;;;;;;;4980904;28;20018;-75
2022/09/10 13:28:01;;;;;;;4.10;2.03;;;;;;;;;;4983913;28;20038;-74
2022/09/10 13:30:28;;;;;;;9.50;2.60;;;;;;;;;;4986814;28;20031;-74
2022/09/10 13:32:57;;;;;;;6.35;2.30;;;;;;;;;;4983318;28;20109;-74
2022/09/10 13:35:26;;;;;;;4.75;2.20;;;;;;;;;;4982816;28;20031;-74
2022/09/10 13:37:52;;;;;;;5.95;2.00;;;;;;;;;;4982179;28;20028;-75
2022/09/10 13:40:30;;;;;;;8.90;2.55;;;;;;;;;;4982976;28;20116;-75
2022/09/10 13:42:56;;;;;;;5.05;2.35;;;;;;;;;;4982686;28;20105;-73
2022/09/10 13:45:29;;;;;;;3.75;1.80;;;;;;;;;;4990046;28;20030;-73
2022/09/10 13:48:00;;;;;;;4.60;2.10;;;;;;;;;;4992748;28;20038;-74
2022/09/10 13:50:29;;;;;;;3.22;1.70;;;;;;;;;;4994630;28;20030;-75
2022/09/10 13:52:58;;;;;;;3.45;2.08;;;;;;;;;;4989114;28;20532;-74
2022/09/10 13:55:29;;;;;;;5.82;2.30;;;;;;;;;;4993110;28;20030;-75
2022/09/10 13:57:58;;;;;;;5.32;1.85;;;;;;;;;;4990883;28;20045;-75
2022/09/10 14:00:26;;;;;;;4.90;2.40;;;;;;;;;;4977297;28;20030;-74
2022/09/10 14:02:55;;;;;;;5.40;2.22;;;;;;;;;;4988524;28;20030;-75
2022/09/10 14:05:41;;;;;;;5.18;2.08;;;;;;;;;;4992949;28;20081;-75
2022/09/10 14:08:11;;;;;;;7.93;2.33;;;;;;;;;;4994185;28;20049;-75
2022/09/10 14:10:48;;;;;;;6.07;2.13;;;;;;;;;;4995272;28;20077;-74
2022/09/10 14:13:16;;;;;;;4.30;2.17;;;;;;;;;;4995211;28;20050;-76
2022/09/10 14:15:42;;;;;;;2.70;1.50;;;;;;;;;;4995117;28;20098;-76
2022/09/10 14:18:09;;;;;;;3.88;2.08;;;;;;;;;;4978171;28;20038;-76
2022/09/10 14:20:36;;;;;;;6.10;2.60;;;;;;;;;;4995529;28;20041;-76
2022/09/10 14:23:15;;;;;;;5.63;2.35;;;;;;;;;;4973448;28;20191;-76
2022/09/10 14:25:42;;;;;;;8.40;2.55;;;;;;;;;;4994045;28;20030;-75
2022/09/10 14:28:18;;;;;;;4.47;2.10;;;;;;;;;;4992260;28;20401;-76
2022/09/10 14:30:44;;;;;;;5.18;2.58;;;;;;;;;;4993420;28;20053;-75
2022/09/10 14:33:27;;;;;;;4.40;2.63;;;;;;;;;;4996970;28;20029;-76
2022/09/10 14:35:56;;;;;;;6.25;2.70;;;;;;;;;;4996222;28;20117;-76
2022/09/10 14:38:23;;;;;;;7.97;3.17;;;;;;;;;;4986512;28;20126;-74